Time;durP1;ratioP1;P1;durP2;ratioP2;P2;SDS_P1;SDS_P2;PMS_P1;PMS_P2;Temp;Humidity;BMP_temperature;BMP_pressure;BME280_temperature;BME280_humidity;BME280_pressure;Samples;Min_cycle;Max_cycle;Signal;HPM_P1;HPM_P2
2023/11/14 00:01:25;;;;;;;23.60;4.25;;;;;;;15.18;80.57;100556.69;4936006;29;20605;-64
2023/11/14 00:03:53;;;;;;;17.95;3.90;;;;;;;15.43;82.21;100541.69;4935018;29;20060;-64
2023/11/14 00:06:21;;;;;;;26.38;4.90;;;;;;;15.47;82.88;100554.50;4935510;29;20040;-63
2023/11/14 00:08:49;;;;;;;20.25;4.53;;;;;;;15.57;81.34;100553.19;4935623;29;20062;-63
2023/11/14 00:11:16;;;;;;;22.10;4.90;;;;;;;15.64;81.04;100556.19;4936292;29;20048;-64
2023/11/14 00:13:45;;;;;;;22.80;4.25;;;;;;;15.87;80.50;100554.50;4936449;29;20051;-63
2023/11/14 00:16:12;;;;;;;23.48;4.13;;;;;;;15.89;79.88;100552.19;4936275;29;20052;-64
2023/11/14 00:18:41;;;;;;;19.98;3.78;;;;;;;15.75;79.47;100549.00;4935754;29;20055;-64
2023/11/14 00:21:09;;;;;;;21.42;4.22;;;;;;;15.60;80.51;100544.19;4935832;29;20491;-64
2023/11/14 00:23:37;;;;;;;33.03;4.85;;;;;;;15.60;81.39;100544.97;4935361;29;20056;-64
2023/11/14 00:26:04;;;;;;;23.58;4.80;;;;;;;15.56;79.61;100543.25;4935690;29;20051;-63
2023/11/14 00:28:31;;;;;;;15.73;3.65;;;;;;;15.56;80.84;100534.94;4950160;29;20078;-63
2023/11/14 00:30:59;;;;;;;23.20;4.45;;;;;;;15.34;80.50;100535.41;4935698;29;20150;-62
2023/11/14 00:33:26;;;;;;;19.98;3.75;;;;;;;15.57;81.63;100555.97;4935235;29;20058;-62
2023/11/14 00:35:55;;;;;;;26.00;4.35;;;;;;;15.71;81.78;100560.00;4949341;29;20063;-63
2023/11/14 00:38:22;;;;;;;24.10;4.15;;;;;;;15.33;81.45;100562.34;4949572;28;20052;-63
2023/11/14 00:40:49;;;;;;;19.77;3.67;;;;;;;15.22;82.42;100566.75;4935588;29;20062;-63
2023/11/14 00:43:18;;;;;;;21.77;4.10;;;;;;;15.20;82.20;100568.25;4934582;29;20059;-62
2023/11/14 00:45:45;;;;;;;25.10;5.00;;;;;;;15.68;82.59;100557.91;4965593;28;20059;-63
2023/11/14 00:48:12;;;;;;;21.27;4.18;;;;;;;15.56;81.79;100557.13;4949534;29;20059;-63
2023/11/14 00:50:39;;;;;;;25.90;3.97;;;;;;;15.20;81.51;100559.94;4933956;29;20066;-64
2023/11/14 00:53:07;;;;;;;23.27;3.75;;;;;;;14.88;81.66;100545.03;4949324;28;20050;-64
2023/11/14 00:55:34;;;;;;;18.83;4.15;;;;;;;15.27;83.22;100547.06;4935218;29;20386;-64
2023/11/14 00:58:02;;;;;;;17.10;4.35;;;;;;;15.47;82.86;100550.91;4935273;29;20060;-63
2023/11/14 01:00:29;;;;;;;23.95;4.97;;;;;;;15.35;82.49;100571.13;4935325;29;20083;-63
2023/11/14 01:03:00;;;;;;;22.40;4.22;;;;;;;15.58;81.39;100569.53;4935150;28;20059;-64
2023/11/14 01:05:28;;;;;;;22.33;3.90;;;;;;;15.53;80.56;100583.63;4964048;28;20796;-63
2023/11/14 01:07:56;;;;;;;21.42;4.28;;;;;;;15.57;83.11;100572.63;4935390;29;20063;-62
2023/11/14 01:10:23;;;;;;;26.02;4.90;;;;;;;15.54;81.21;100590.00;4949131;29;20080;-63
2023/11/14 01:12:50;;;;;;;22.23;4.45;;;;;;;15.84;81.96;100591.31;4964266;28;20052;-63
2023/11/14 01:15:18;;;;;;;19.98;3.88;;;;;;;15.01;77.47;100596.56;4934738;29;20052;-63
2023/11/14 01:17:45;;;;;;;24.48;3.88;;;;;;;15.42;83.27;100615.81;4935263;29;20059;-63
2023/11/14 01:20:13;;;;;;;23.00;4.22;;;;;;;15.51;83.56;100599.03;4935204;29;20530;-63
2023/11/14 01:22:40;;;;;;;22.92;4.18;;;;;;;15.29;81.67;100618.91;4933433;29;20054;-63
2023/11/14 01:25:08;;;;;;;22.73;4.10;;;;;;;15.41;83.13;100635.59;4949361;28;20160;-62
2023/11/14 01:27:36;;;;;;;23.98;4.13;;;;;;;15.39;82.47;100637.88;4965313;28;20056;-64
2023/11/14 01:30:03;;;;;;;24.63;4.53;;;;;;;15.44;80.78;100646.81;4932789;29;20052;-64
2023/11/14 01:32:31;;;;;;;22.77;3.85;;;;;;;15.61;82.25;100640.19;4934160;29;20059;-63
2023/11/14 01:34:58;;;;;;;28.70;4.90;;;;;;;15.49;81.00;100635.47;4934356;29;20060;-64
2023/11/14 01:37:26;;;;;;;24.20;4.53;;;;;;;15.60;82.29;100647.69;4948444;28;20066;-63
2023/11/14 01:39:53;;;;;;;31.42;4.35;;;;;;;15.50;80.66;100645.41;4934534;29;20051;-63
2023/11/14 01:42:20;;;;;;;25.58;4.47;;;;;;;15.38;82.80;100650.94;4934401;29;20660;-63
2023/11/14 01:44:47;;;;;;;25.95;4.45;;;;;;;15.39;83.90;100660.88;4953668;28;20052;-63
2023/11/14 01:47:16;;;;;;;24.08;4.50;;;;;;;15.35;82.07;100661.91;4946294;29;20059;-65
2023/11/14 01:49:44;;;;;;;27.00;4.10;;;;;;;15.24;83.20;100656.00;4929474;29;20052;-63
2023/11/14 01:52:14;;;;;;;26.70;4.40;;;;;;;15.21;83.35;100656.72;4947504;29;20531;-64
2023/11/14 01:54:42;;;;;;;26.83;4.22;;;;;;;15.11;83.22;100654.38;4934201;29;20325;-64
2023/11/14 01:57:11;;;;;;;20.55;4.20;;;;;;;14.88;82.13;100667.06;4948143;28;20058;-63
2023/11/14 01:59:40;;;;;;;22.95;4.75;;;;;;;15.10;81.82;100669.41;4965249;28;20097;-62
2023/11/14 02:02:12;;;;;;;22.63;4.13;;;;;;;15.07;84.23;100642.34;4964909;28;20063;-63
2023/11/14 02:04:41;;;;;;;20.50;4.20;;;;;;;15.33;84.84;100653.13;4932842;29;20039;-64
2023/11/14 02:07:08;;;;;;;26.60;4.68;;;;;;;15.58;83.01;100655.59;4932681;29;20457;-63
2023/11/14 02:09:35;;;;;;;24.27;4.88;;;;;;;15.60;83.73;100660.78;4979801;28;20059;-63
2023/11/14 02:12:03;;;;;;;25.08;4.40;;;;;;;15.43;82.19;100669.38;4962724;28;20082;-63
2023/11/14 02:14:31;;;;;;;24.08;4.90;;;;;;;15.47;83.04;100667.50;4928880;29;20051;-63
2023/11/14 02:16:58;;;;;;;25.70;4.28;;;;;;;15.56;83.85;100663.44;4914723;29;20063;-63
2023/11/14 02:19:27;;;;;;;26.00;5.05;;;;;;;15.67;82.90;100655.47;4955954;28;20066;-63
2023/11/14 02:21:54;;;;;;;24.65;4.13;;;;;;;15.67;83.07;100656.25;4928383;29;20056;-62
2023/11/14 02:24:21;;;;;;;22.58;4.22;;;;;;;15.38;83.52;100663.97;4946450;29;20719;-63
2023/11/14 02:26:49;;;;;;;22.98;4.78;;;;;;;15.54;83.58;100657.44;4932214;29;20063;-63
2023/11/14 02:29:19;;;;;;;21.70;4.88;;;;;;;15.69;84.36;100653.16;4933390;29;20058;-62
2023/11/14 02:31:50;;;;;;;31.33;5.57;;;;;;;15.59;82.71;100653.59;4934020;29;20051;-63
2023/11/14 02:34:18;;;;;;;25.10;4.63;;;;;;;15.77;83.82;100650.25;4932075;29;20051;-62
2023/11/14 02:36:45;;;;;;;18.38;3.53;;;;;;;15.99;83.24;100642.56;4948097;29;20044;-65
2023/11/14 02:39:13;;;;;;;21.88;4.15;;;;;;;15.78;81.78;100637.97;4934064;29;20368;-63
2023/11/14 02:41:41;;;;;;;23.52;4.30;;;;;;;15.84;81.34;100648.84;4932791;29;20051;-63
2023/11/14 02:44:09;;;;;;;29.67;4.68;;;;;;;15.63;83.75;100647.03;4932982;29;20157;-64
2023/11/14 02:46:37;;;;;;;25.50;4.25;;;;;;;15.49;84.08;100651.31;4962932;28;20056;-63
2023/11/14 02:49:43;;;;;;;30.77;4.43;;;;;;;15.56;84.21;100640.44;4933617;29;20063;-64
2023/11/14 02:52:11;;;;;;;25.10;4.28;;;;;;;15.59;84.00;100662.75;4948398;28;20145;-64
2023/11/14 02:54:39;;;;;;;23.77;3.95;;;;;;;15.55;85.17;100661.81;4931859;29;20056;-63
2023/11/14 02:57:09;;;;;;;29.42;5.70;;;;;;;15.43;84.85;100656.28;4934106;29;20056;-63
2023/11/14 02:59:37;;;;;;;26.10;4.13;;;;;;;15.48;85.20;100658.81;4933019;29;20051;-64
2023/11/14 03:02:07;;;;;;;27.35;4.50;;;;;;;15.47;84.22;100648.06;4916544;29;20048;-63
2023/11/14 03:04:35;;;;;;;28.95;4.20;;;;;;;15.64;84.41;100645.03;4932888;29;20055;-63
2023/11/14 03:07:02;;;;;;;23.77;4.97;;;;;;;15.65;84.14;100647.50;4946714;29;20043;-63
2023/11/14 03:09:29;;;;;;;29.05;4.93;;;;;;;15.84;83.97;100649.66;4931911;29;20361;-64
2023/11/14 03:11:57;;;;;;;30.30;4.85;;;;;;;15.63;82.70;100641.47;4964106;28;20051;-63
2023/11/14 03:14:24;;;;;;;21.92;4.65;;;;;;;15.33;84.43;100637.28;4947151;29;20055;-63
2023/11/14 03:16:51;;;;;;;19.83;3.63;;;;;;;15.43;85.02;100649.94;4933818;29;20060;-63
2023/11/14 03:19:19;;;;;;;25.95;4.57;;;;;;;15.17;82.87;100655.78;4937090;29;20059;-63
2023/11/14 03:21:47;;;;;;;30.73;4.88;;;;;;;14.80;87.17;100648.56;4967216;28;20074;-63
2023/11/14 03:24:14;;;;;;;27.10;4.68;;;;;;;14.91;86.62;100649.72;4936842;29;20062;-63
2023/11/14 03:26:42;;;;;;;24.73;4.47;;;;;;;15.32;87.07;100645.97;4936989;29;20051;-63
2023/11/14 03:29:12;;;;;;;23.52;4.07;;;;;;;15.32;85.01;100646.78;4936479;29;20415;-64
2023/11/14 03:31:39;;;;;;;18.27;3.25;;;;;;;15.57;86.05;100650.34;4967381;28;20071;-64
2023/11/14 03:34:06;;;;;;;19.85;3.90;;;;;;;15.41;84.54;100643.91;4966692;28;20054;-63
2023/11/14 03:36:34;;;;;;;22.80;3.15;;;;;;;15.62;85.10;100645.38;4950865;29;20059;-64
2023/11/14 03:39:03;;;;;;;23.48;4.35;;;;;;;15.61;85.32;100638.22;4967380;28;20106;-64
2023/11/14 03:41:31;;;;;;;29.13;4.38;;;;;;;15.71;84.29;100648.03;4951144;29;20055;-63
2023/11/14 03:43:58;;;;;;;18.35;3.65;;;;;;;15.64;83.40;100634.75;4966335;28;20448;-63
2023/11/14 03:46:25;;;;;;;23.13;4.45;;;;;;;15.49;83.64;100620.78;4948690;29;20055;-62
2023/11/14 03:48:52;;;;;;;25.98;4.18;;;;;;;15.46;84.97;100627.81;4936075;29;20058;-62
2023/11/14 03:51:20;;;;;;;23.80;4.55;;;;;;;15.53;83.82;100628.03;4937647;29;20067;-63
2023/11/14 03:53:49;;;;;;;21.92;4.72;;;;;;;15.54;83.39;100624.13;4936966;29;20063;-64
2023/11/14 03:56:17;;;;;;;22.47;3.83;;;;;;;15.45;85.03;100617.06;4937648;29;20051;-63
2023/11/14 03:58:44;;;;;;;19.23;3.65;;;;;;;15.53;83.20;100611.38;4932663;29;20067;-63
2023/11/14 04:01:11;;;;;;;23.17;4.22;;;;;;;15.57;84.45;100609.53;4951746;29;20055;-63
2023/11/14 04:03:38;;;;;;;24.02;4.40;;;;;;;15.77;85.21;100605.81;4936934;29;20046;-64
2023/11/14 04:06:09;;;;;;;20.52;4.30;;;;;;;15.65;83.61;100613.34;4938831;29;20515;-63
2023/11/14 04:08:37;;;;;;;27.40;4.13;;;;;;;15.68;84.67;100612.63;4986469;28;20062;-64
2023/11/14 04:11:08;;;;;;;26.00;4.80;;;;;;;15.19;82.51;100616.56;4945635;28;20056;-62
2023/11/14 04:13:36;;;;;;;24.52;4.63;;;;;;;14.94;83.54;100620.50;4951331;29;20054;-63
2023/11/14 04:16:04;;;;;;;26.20;4.78;;;;;;;15.21;85.86;100612.31;4967702;28;20051;-63
2023/11/14 04:18:36;;;;;;;24.50;4.40;;;;;;;15.19;85.75;100616.56;4935779;29;20162;-62
2023/11/14 04:21:04;;;;;;;21.33;4.63;;;;;;;15.29;86.78;100619.69;4935080;29;20052;-63
2023/11/14 04:23:31;;;;;;;25.85;4.03;;;;;;;15.36;84.91;100619.94;4935945;29;20059;-63
2023/11/14 04:25:58;;;;;;;25.40;3.92;;;;;;;15.07;84.96;100636.81;4936052;29;20056;-63
2023/11/14 04:28:26;;;;;;;28.05;4.40;;;;;;;15.27;86.75;100643.41;4950324;28;20051;-64
2023/11/14 04:30:53;;;;;;;26.90;3.88;;;;;;;14.87;86.07;100639.66;4935843;29;20082;-64
2023/11/14 04:33:20;;;;;;;26.35;3.97;;;;;;;15.28;88.21;100639.47;4936308;29;20051;-63
2023/11/14 04:35:47;;;;;;;21.17;4.40;;;;;;;15.23;87.34;100639.72;4935900;29;20059;-63
2023/11/14 04:38:15;;;;;;;28.40;4.03;;;;;;;15.15;86.92;100655.28;4966526;28;20059;-63
2023/11/14 04:40:42;;;;;;;23.80;3.78;;;;;;;15.07;87.83;100656.22;4935941;29;20063;-63
2023/11/14 04:43:10;;;;;;;27.77;4.55;;;;;;;15.17;88.45;100652.19;4935503;29;20063;-63
2023/11/14 04:45:38;;;;;;;21.88;3.95;;;;;;;15.21;87.88;100653.13;4950334;29;20058;-63
2023/11/14 04:48:07;;;;;;;22.83;4.22;;;;;;;15.17;87.12;100666.03;4935927;29;20052;-64
2023/11/14 04:50:34;;;;;;;21.27;4.28;;;;;;;15.16;88.44;100670.81;4935086;29;20475;-63
2023/11/14 04:53:01;;;;;;;24.17;4.05;;;;;;;15.30;88.51;100685.16;4965142;28;20155;-64
2023/11/14 04:55:28;;;;;;;20.02;4.03;;;;;;;15.37;87.94;100685.41;4934530;29;20543;-64
2023/11/14 04:57:55;;;;;;;19.02;3.72;;;;;;;15.26;87.64;100675.91;4965736;28;20065;-63
2023/11/14 05:00:23;;;;;;;17.98;3.33;;;;;;;15.39;88.40;100669.22;4934103;29;20054;-63
2023/11/14 05:02:50;;;;;;;18.17;3.95;;;;;;;15.49;87.87;100654.91;4935261;29;20059;-64
2023/11/14 05:05:18;;;;;;;23.35;4.05;;;;;;;15.18;87.11;100639.94;4935041;29;20056;-64
2023/11/14 05:07:47;;;;;;;23.92;5.10;;;;;;;14.98;89.10;100635.28;4965645;28;20051;-64
2023/11/14 05:10:14;;;;;;;20.00;3.47;;;;;;;15.20;89.56;100605.13;4934484;29;20043;-63
2023/11/14 05:12:42;;;;;;;20.48;3.45;;;;;;;15.12;89.67;100588.59;4934645;29;20420;-63
2023/11/14 05:15:10;;;;;;;20.33;3.60;;;;;;;15.05;88.95;100597.50;4949632;28;20083;-64
2023/11/14 05:17:39;;;;;;;24.42;3.33;;;;;;;14.74;88.42;100619.41;4935627;29;20055;-62
2023/11/14 05:20:08;;;;;;;;;;;;;;;15.00;90.53;100617.16;4932964;29;20051;-64
2023/11/14 05:22:35;;;;;;;21.88;3.30;;;;;;;15.06;89.30;100592.78;4963914;28;19934;-63
2023/11/14 05:25:02;;;;;;;19.98;3.83;;;;;;;15.08;89.44;100580.16;4934458;29;20082;-62
2023/11/14 05:27:29;;;;;;;22.35;3.50;;;;;;;14.99;90.10;100565.63;4933239;29;20082;-64
2023/11/14 05:29:57;;;;;;;19.55;3.78;;;;;;;15.15;90.95;100563.75;4932970;29;20048;-64
2023/11/14 05:32:25;;;;;;;25.70;3.63;;;;;;;15.31;90.74;100575.75;4932448;29;20058;-62
2023/11/14 05:34:52;;;;;;;21.48;3.63;;;;;;;15.23;89.88;100590.56;4932927;29;20060;-63
2023/11/14 05:37:20;;;;;;;25.25;4.35;;;;;;;15.17;89.33;100600.28;4948026;29;20059;-64
2023/11/14 05:39:47;;;;;;;25.92;3.80;;;;;;;15.31;90.26;100603.50;4933522;29;20063;-63
2023/11/14 05:42:14;;;;;;;19.85;3.53;;;;;;;15.42;89.33;100615.00;4934348;29;20059;-63
2023/11/14 05:44:41;;;;;;;19.40;3.28;;;;;;;15.22;87.52;100600.03;4934492;29;20062;-64
2023/11/14 05:47:09;;;;;;;21.85;3.88;;;;;;;15.53;88.80;100575.28;4934428;29;20051;-63
2023/11/14 05:49:36;;;;;;;20.35;3.53;;;;;;;15.48;88.34;100575.53;4934639;29;20052;-65
2023/11/14 05:52:04;;;;;;;22.05;3.92;;;;;;;15.14;86.80;100584.34;4948097;29;20063;-62
2023/11/14 05:54:31;;;;;;;24.38;4.05;;;;;;;15.23;88.38;100598.91;4948829;29;20047;-63
2023/11/14 05:57:03;;;;;;;24.77;3.58;;;;;;;15.62;88.15;100612.06;4934166;29;20051;-63
2023/11/14 05:59:30;;;;;;;19.90;4.22;;;;;;;15.28;88.09;100618.09;4933782;29;20040;-64
2023/11/14 06:01:57;;;;;;;20.67;4.07;;;;;;;15.41;87.47;100589.19;4964034;28;20056;-62
2023/11/14 06:04:24;;;;;;;21.02;3.65;;;;;;;15.29;87.27;100585.59;4964267;28;20063;-63
2023/11/14 06:06:55;;;;;;;23.85;4.57;;;;;;;15.37;89.53;100576.34;4933943;29;20055;-66
2023/11/14 06:09:22;;;;;;;20.33;3.53;;;;;;;15.48;87.43;100569.97;4933885;29;20066;-64
2023/11/14 06:11:49;;;;;;;17.23;3.50;;;;;;;15.41;87.88;100555.88;4933410;29;20052;-63
2023/11/14 06:14:16;;;;;;;22.77;3.97;;;;;;;15.45;87.11;100556.00;4934113;29;20047;-65
2023/11/14 06:16:44;;;;;;;21.85;3.42;;;;;;;15.14;85.94;100551.03;4933809;29;20059;-64
2023/11/14 06:19:11;;;;;;;21.17;3.85;;;;;;;15.31;87.85;100561.06;4934063;29;20817;-64
2023/11/14 06:21:40;;;;;;;21.77;3.88;;;;;;;15.33;88.23;100555.97;4932401;29;20506;-64
2023/11/14 06:24:07;;;;;;;21.40;4.30;;;;;;;15.37;88.39;100566.06;4934582;29;20125;-65
2023/11/14 06:26:35;;;;;;;26.02;4.18;;;;;;;15.52;89.00;100556.22;4934336;29;20075;-64
2023/11/14 06:29:02;;;;;;;20.83;3.83;;;;;;;15.61;86.24;100568.00;4933864;29;20044;-64
2023/11/14 06:31:29;;;;;;;20.42;4.43;;;;;;;15.56;87.38;100569.06;4934293;28;20057;-63
2023/11/14 06:33:57;;;;;;;23.75;3.95;;;;;;;15.70;87.23;100565.91;4933288;29;20059;-64
2023/11/14 06:36:24;;;;;;;21.95;3.60;;;;;;;15.26;85.67;100580.72;4964100;28;20078;-64
2023/11/14 06:38:51;;;;;;;21.00;3.95;;;;;;;14.93;86.42;100582.81;4936568;29;20047;-65
2023/11/14 06:41:18;;;;;;;25.15;4.18;;;;;;;14.48;88.99;100605.03;4934447;29;20055;-63
2023/11/14 06:43:45;;;;;;;20.98;3.55;;;;;;;14.98;90.64;100608.34;4933893;29;20059;-63
2023/11/14 06:46:13;;;;;;;17.40;3.00;;;;;;;14.87;88.70;100601.63;4932445;29;20055;-63
2023/11/14 06:48:40;;;;;;;23.27;4.30;;;;;;;15.22;90.34;100568.72;4934448;28;20082;-63
2023/11/14 06:51:07;;;;;;;20.67;3.60;;;;;;;14.79;88.48;100558.19;4943540;28;20052;-63
2023/11/14 06:53:34;;;;;;;20.33;3.22;;;;;;;14.85;90.53;100551.28;4956628;29;20692;-64
2023/11/14 06:56:04;;;;;;;18.98;3.63;;;;;;;14.98;90.58;100539.00;4939902;28;20067;-63
2023/11/14 06:58:34;;;;;;;24.77;3.97;;;;;;;14.68;89.31;100554.25;4936243;29;20055;-64
2023/11/14 07:01:02;;;;;;;22.92;4.07;;;;;;;14.94;92.25;100549.19;4937641;29;20062;-63
2023/11/14 07:03:31;;;;;;;25.27;3.75;;;;;;;15.11;90.67;100548.97;4937451;29;20059;-62
2023/11/14 07:05:58;;;;;;;21.17;5.10;;;;;;;15.11;90.23;100548.16;4967095;28;20056;-62
2023/11/14 07:08:26;;;;;;;22.70;4.43;;;;;;;15.10;91.10;100550.09;4937404;29;20407;-63
2023/11/14 07:10:53;;;;;;;18.38;3.85;;;;;;;15.39;90.09;100572.06;4950552;29;20058;-63
2023/11/14 07:13:20;;;;;;;19.95;3.55;;;;;;;15.34;89.33;100586.16;4954792;29;20058;-62
2023/11/14 07:15:47;;;;;;;22.80;3.75;;;;;;;14.47;88.67;100586.78;4938408;29;20078;-62
2023/11/14 07:18:15;;;;;;;20.83;3.90;;;;;;;14.79;93.36;100566.50;4965941;28;20051;-63
2023/11/14 07:20:42;;;;;;;22.92;4.45;;;;;;;14.68;89.87;100570.88;4917774;29;20060;-62
2023/11/14 07:23:11;;;;;;;22.23;3.50;;;;;;;15.06;91.87;100573.34;4928814;29;20051;-61
2023/11/14 07:25:43;;;;;;;19.33;3.17;;;;;;;15.46;91.49;100560.41;4936196;29;20052;-62
2023/11/14 07:28:11;;;;;;;17.83;3.53;;;;;;;15.43;89.98;100561.91;4936267;29;20067;-62
2023/11/14 07:30:42;;;;;;;19.48;3.83;;;;;;;15.39;89.65;100566.53;4951893;29;20054;-62
2023/11/14 07:33:09;;;;;;;14.32;3.65;;;;;;;15.63;90.30;100560.13;4935689;29;20063;-63
2023/11/14 07:35:37;;;;;;;18.90;3.67;;;;;;;15.46;89.35;100554.84;4967048;28;20056;-63
2023/11/14 07:38:06;;;;;;;16.92;2.83;;;;;;;15.46;90.13;100550.09;4934227;29;20063;-62
2023/11/14 07:40:33;;;;;;;15.82;2.80;;;;;;;15.76;88.18;100551.41;4931684;29;20058;-62
2023/11/14 07:43:03;;;;;;;13.63;2.95;;;;;;;16.22;87.72;100552.72;4936335;29;20055;-62
2023/11/14 07:45:30;;;;;;;14.70;3.15;;;;;;;16.24;86.14;100546.81;4938925;29;20055;-62
2023/11/14 07:47:58;;;;;;;18.10;3.15;;;;;;;16.54;83.97;100554.44;4937525;29;20398;-63
2023/11/14 07:50:26;;;;;;;26.45;3.97;;;;;;;16.49;81.57;100562.25;4970015;28;20063;-64
2023/11/14 07:52:53;;;;;;;16.10;3.08;;;;;;;16.58;81.08;100555.31;4936512;29;20443;-64
2023/11/14 07:55:20;;;;;;;16.17;3.20;;;;;;;16.25;80.57;100556.78;4933976;29;20059;-63
2023/11/14 07:57:48;;;;;;;14.02;2.67;;;;;;;16.22;81.95;100555.50;4938049;29;20052;-63
2023/11/14 08:00:16;;;;;;;18.13;3.47;;;;;;;15.95;82.07;100561.06;4938189;29;20051;-62
2023/11/14 08:02:44;;;;;;;21.35;3.70;;;;;;;15.57;84.69;100558.75;4949283;28;20064;-65
2023/11/14 08:05:11;;;;;;;23.27;5.28;;;;;;;15.61;85.87;100568.81;4949758;29;20794;-64
2023/11/14 08:07:38;;;;;;;18.63;4.00;;;;;;;15.61;85.80;100562.44;4952481;28;20051;-63
2023/11/14 08:10:07;;;;;;;19.48;3.90;;;;;;;15.47;86.29;100576.69;4939096;29;20056;-63
2023/11/14 08:12:36;;;;;;;18.38;3.80;;;;;;;15.65;87.49;100593.91;4951109;29;20142;-63
2023/11/14 08:15:03;;;;;;;14.85;3.63;;;;;;;15.32;86.20;100610.69;4938456;29;20055;-62
2023/11/14 08:17:30;;;;;;;20.50;3.92;;;;;;;15.57;88.27;100617.03;4934752;29;20062;-62
2023/11/14 08:19:59;;;;;;;20.95;3.65;;;;;;;15.40;89.35;100615.34;4933832;28;20055;-62
2023/11/14 08:22:26;;;;;;;31.92;9.27;;;;;;;15.38;88.95;100602.91;4934085;29;20182;-63
2023/11/14 08:24:53;;;;;;;14.85;3.35;;;;;;;15.21;88.78;100600.41;4934852;29;20415;-62
2023/11/14 08:27:21;;;;;;;18.67;3.65;;;;;;;15.47;90.80;100603.66;4964790;28;20047;-63
2023/11/14 08:29:49;;;;;;;19.27;3.72;;;;;;;15.54;88.70;100595.53;4935140;29;20055;-61
2023/11/14 08:32:16;;;;;;;18.40;4.00;;;;;;;15.53;88.41;100608.59;4933810;29;20055;-61
2023/11/14 08:34:44;;;;;;;24.40;6.00;;;;;;;15.74;88.92;100600.94;4964519;28;20063;-62
2023/11/14 08:37:11;;;;;;;17.83;3.67;;;;;;;15.95;88.08;100589.69;4942940;29;20064;-62
2023/11/14 08:39:41;;;;;;;19.05;3.05;;;;;;;15.90;87.68;100559.34;4934083;29;20040;-65
2023/11/14 08:42:11;;;;;;;16.08;2.88;;;;;;;15.73;88.45;100548.53;4934597;29;20137;-63
2023/11/14 08:44:38;;;;;;;16.42;3.13;;;;;;;15.78;89.38;100537.16;4933843;29;20495;-62
2023/11/14 08:47:06;;;;;;;20.23;3.30;;;;;;;16.11;87.71;100534.94;4934668;29;20055;-63
2023/11/14 08:49:33;;;;;;;19.58;2.92;;;;;;;15.95;86.81;100524.97;4933905;29;20051;-63
2023/11/14 08:52:00;;;;;;;18.33;3.72;;;;;;;15.95;88.10;100531.34;4933041;29;20068;-62
2023/11/14 08:54:28;;;;;;;19.88;3.20;;;;;;;15.81;88.08;100517.03;4935177;28;20423;-63
2023/11/14 08:56:55;;;;;;;20.20;5.07;;;;;;;15.84;88.57;100521.06;4965344;28;20059;-62
2023/11/14 08:59:22;;;;;;;18.83;3.00;;;;;;;15.96;87.90;100516.28;4948340;28;20587;-62
2023/11/14 09:01:49;;;;;;;15.10;2.75;;;;;;;15.87;87.86;100498.94;4964679;28;20447;-62
2023/11/14 09:04:18;;;;;;;17.88;3.00;;;;;;;15.94;88.78;100503.88;4933644;28;20059;-63
2023/11/14 09:06:45;;;;;;;18.33;3.15;;;;;;;16.12;88.20;100506.00;4931777;29;20497;-64
2023/11/14 09:09:14;;;;;;;17.30;3.00;;;;;;;16.29;86.80;100497.34;4933190;29;20044;-63
2023/11/14 09:11:42;;;;;;;16.25;2.88;;;;;;;16.32;86.84;100499.41;4933410;29;20059;-63
2023/11/14 09:14:09;;;;;;;18.15;3.17;;;;;;;16.30;86.93;100484.25;4971717;28;20058;-62
2023/11/14 09:16:36;;;;;;;20.77;8.10;;;;;;;16.37;87.30;100467.75;4929990;29;20063;-62
2023/11/14 09:19:04;;;;;;;20.25;7.30;;;;;;;16.36;86.26;100478.06;4936790;29;20044;-64
2023/11/14 09:21:31;;;;;;;16.75;3.50;;;;;;;16.26;86.64;100483.34;4943635;29;20476;-62
2023/11/14 09:23:59;;;;;;;17.90;3.22;;;;;;;16.11;87.83;100506.38;4946345;28;20059;-64
2023/11/14 09:26:27;;;;;;;15.32;2.80;;;;;;;16.22;86.90;100501.88;4942200;28;20064;-63
2023/11/14 09:28:55;;;;;;;15.15;2.63;;;;;;;16.29;87.06;100507.63;4933586;29;20055;-64
2023/11/14 09:31:22;;;;;;;17.27;3.03;;;;;;;16.35;86.60;100515.34;4931844;29;20051;-65
2023/11/14 09:33:49;;;;;;;20.45;2.88;;;;;;;15.96;87.94;100515.44;4934410;29;20063;-63
2023/11/14 09:36:17;;;;;;;23.83;3.65;;;;;;;15.93;88.45;100518.94;4947795;29;20369;-63
2023/11/14 09:38:44;;;;;;;19.23;3.10;;;;;;;16.29;87.84;100496.53;4933787;29;20071;-62
2023/11/14 09:41:12;;;;;;;12.98;2.70;;;;;;;16.25;87.27;100467.84;4965478;28;20730;-63
2023/11/14 09:43:40;;;;;;;15.98;3.25;;;;;;;16.35;86.85;100479.22;4937282;29;20043;-62
2023/11/14 09:46:07;;;;;;;17.42;3.33;;;;;;;16.37;86.49;100492.78;4949027;28;20059;-63
2023/11/14 09:48:36;;;;;;;16.00;3.03;;;;;;;16.22;85.58;100499.94;4965615;28;20108;-63
2023/11/14 09:51:05;;;;;;;18.02;2.85;;;;;;;15.92;85.68;100484.00;4932583;29;20043;-68
2023/11/14 09:53:34;;;;;;;16.02;3.50;;;;;;;16.24;87.48;100489.28;4946253;29;20058;-62
2023/11/14 09:56:04;;;;;;;14.25;3.35;;;;;;;16.20;85.84;100481.97;4946837;29;20062;-63
2023/11/14 09:58:31;;;;;;;15.02;3.10;;;;;;;16.06;86.18;100484.38;4965335;28;20066;-64
2023/11/14 10:01:00;;;;;;;16.02;3.28;;;;;;;16.03;86.81;100491.47;4971769;28;20054;-62
2023/11/14 10:03:29;;;;;;;17.73;2.95;;;;;;;16.10;87.32;100480.53;4954096;28;20043;-63
2023/11/14 10:05:56;;;;;;;16.90;2.77;;;;;;;16.36;88.02;100475.28;4949531;28;20050;-62
2023/11/14 10:08:24;;;;;;;18.83;3.40;;;;;;;16.38;87.17;100477.72;4968563;28;20059;-62
2023/11/14 10:11:09;;;;;;;12.88;2.65;;;;;;;16.48;86.41;100480.78;4936448;29;20047;-62
2023/11/14 10:13:38;;;;;;;13.60;3.20;;;;;;;16.55;86.15;100480.16;4938588;29;20051;-60
2023/11/14 10:16:13;;;;;;;18.27;4.22;;;;;;;16.03;86.35;100480.34;4983328;28;20066;-62
2023/11/14 10:18:40;;;;;;;14.13;3.00;;;;;;;16.33;86.93;100484.34;4961414;28;20672;-61
2023/11/14 10:21:30;;;;;;;12.98;3.42;;;;;;;16.08;88.03;100479.28;4939692;29;20646;-64
2023/11/14 10:24:10;;;;;;;19.52;4.13;;;;;;;16.14;88.14;100486.19;4962394;28;20057;-62
2023/11/14 10:26:52;;;;;;;20.95;4.18;;;;;;;16.41;87.14;100476.97;4936873;28;20060;-61
2023/11/14 10:29:21;;;;;;;14.20;3.22;;;;;;;16.36;86.50;100468.91;4951352;28;20062;-60
2023/11/14 10:31:50;;;;;;;15.00;2.92;;;;;;;16.14;86.27;100477.88;4940079;28;20055;-62
2023/11/14 10:34:28;;;;;;;14.10;3.95;;;;;;;16.25;86.65;100476.19;4950861;29;20062;-62
2023/11/14 10:36:56;;;;;;;16.35;3.90;;;;;;;16.45;85.28;100472.31;4936067;29;20074;-61
2023/11/14 10:39:25;;;;;;;22.05;3.50;;;;;;;16.34;84.85;100468.47;4943490;29;20047;-61
2023/11/14 10:41:53;;;;;;;14.30;3.50;;;;;;;16.48;84.56;100461.31;4953831;28;20064;-61
2023/11/14 10:44:23;;;;;;;14.82;3.47;;;;;;;16.47;82.95;100453.34;4945052;29;20059;-62
2023/11/14 10:46:59;;;;;;;14.23;4.32;;;;;;;16.28;83.14;100451.25;4944417;28;20059;-61
2023/11/14 10:49:27;;;;;;;12.63;3.05;;;;;;;16.28;83.56;100462.38;4943294;29;20047;-62
2023/11/14 10:51:54;;;;;;;15.43;3.45;;;;;;;16.46;83.71;100471.16;4951600;28;20062;-61
2023/11/14 10:54:27;;;;;;;14.40;3.25;;;;;;;16.62;83.46;100469.22;4944657;29;20510;-61
2023/11/14 10:56:56;;;;;;;11.68;2.83;;;;;;;16.45;83.46;100459.25;4996469;28;20070;-62
2023/11/14 10:59:26;;;;;;;17.23;4.30;;;;;;;16.35;84.68;100468.09;4948606;28;20059;-62
2023/11/14 11:01:54;;;;;;;19.70;3.33;;;;;;;16.50;84.06;100455.41;4981327;28;20054;-62
2023/11/14 11:04:22;;;;;;;14.57;3.55;;;;;;;16.46;84.21;100465.59;4942858;29;20059;-62
2023/11/14 11:06:50;;;;;;;15.57;3.55;;;;;;;16.52;84.96;100451.13;4940140;29;20047;-61
2023/11/14 11:09:18;;;;;;;12.40;3.45;;;;;;;16.57;84.44;100442.50;4967269;28;20059;-62
2023/11/14 11:11:52;;;;;;;13.13;3.30;;;;;;;16.75;83.85;100443.72;4936627;29;20063;-62
2023/11/14 11:14:22;;;;;;;20.70;3.47;;;;;;;16.71;83.94;100444.81;4965028;28;20587;-62
2023/11/14 11:16:52;;;;;;;19.95;3.72;;;;;;;16.57;84.58;100438.91;4948614;28;20058;-63
2023/11/14 11:19:28;;;;;;;14.48;3.58;;;;;;;16.25;86.27;100440.84;4940070;29;20047;-60
2023/11/14 11:22:03;;;;;;;15.00;3.33;;;;;;;16.43;86.47;100424.63;4940412;29;20047;-62